Time;durP1;ratioP1;P1;durP2;ratioP2;P2;SDS_P1;SDS_P2;PMS_P1;PMS_P2;Temp;Humidity;BMP_temperature;BMP_pressure;BME280_temperature;BME280_humidity;BME280_pressure;Samples;Min_cycle;Max_cycle;Signal;HPM_P1;HPM_P2
2021/03/10 07:07:14;;;;;;;5.38;3.00;;;19.60;37.20;;;;;;5198927;22;20064;-52
2021/03/10 07:09:41;;;;;;;4.20;2.55;;;19.60;37.60;;;;;;5034028;28;20041;-47
2021/03/10 07:12:08;;;;;;;5.53;2.42;;;19.60;37.50;;;;;;5033974;28;20071;-52
2021/03/10 07:14:34;;;;;;;4.15;2.53;;;19.60;37.50;;;;;;5034683;28;20057;-47
2021/03/10 07:17:00;;;;;;;3.45;2.17;;;19.60;37.60;;;;;;5034971;28;20038;-54
2021/03/10 07:19:25;;;;;;;3.63;2.30;;;19.60;37.70;;;;;;5034612;28;20038;-54
2021/03/10 07:21:56;;;;;;;2.05;1.70;;;19.60;37.70;;;;;;5034530;28;20427;-56
2021/03/10 07:24:46;;;;;;;5.55;2.40;;;19.70;37.80;;;;;;5034142;28;20470;-51
2021/03/10 07:27:15;;;;;;;4.57;2.20;;;19.60;37.80;;;;;;5023012;28;20081;-48
2021/03/10 07:29:41;;;;;;;2.47;2.03;;;19.70;37.90;;;;;;5034843;28;20061;-52
2021/03/10 07:32:08;;;;;;;6.35;2.22;;;19.70;38.00;;;;;;5034320;28;20363;-53
2021/03/10 07:34:35;;;;;;;3.80;2.22;;;19.70;38.00;;;;;;5034397;28;20414;-48
2021/03/10 07:37:12;;;;;;;3.53;2.35;;;19.80;38.00;;;;;;5034233;28;20100;-47
2021/03/10 07:39:37;;;;;;;4.35;2.10;;;19.80;38.10;;;;;;5034346;28;20025;-54
2021/03/10 07:42:10;;;;;;;2.95;1.92;;;19.80;38.10;;;;;;5035977;28;20347;-49
2021/03/10 07:44:36;;;;;;;4.50;2.22;;;19.80;38.10;;;;;;5037896;28;20030;-51
2021/03/10 07:47:08;;;;;;;4.05;2.10;;;19.90;38.10;;;;;;5037789;28;20041;-53
2021/03/10 07:49:34;;;;;;;3.20;1.77;;;19.90;38.10;;;;;;5038129;28;20041;-51
2021/03/10 07:52:13;;;;;;;7.22;1.88;;;19.90;38.10;;;;;;5037753;28;20026;-54
2021/03/10 07:54:40;;;;;;;2.95;1.67;;;19.90;38.10;;;;;;5037689;28;20041;-50
2021/03/10 07:57:14;;;;;;;4.00;2.80;;;20.00;38.10;;;;;;5037341;28;20034;-49
2021/03/10 07:59:56;;;;;;;9.88;2.53;;;20.00;38.30;;;;;;5037318;28;20463;-50
2021/03/10 08:02:23;;;;;;;6.80;2.35;;;20.00;38.30;;;;;;5037327;28;20034;-56
2021/03/10 08:05:02;;;;;;;5.00;2.15;;;20.00;38.30;;;;;;5037408;28;20458;-48
2021/03/10 08:07:32;;;;;;;6.22;2.80;;;20.00;38.40;;;;;;5043545;28;20040;-47
2021/03/10 08:09:58;;;;;;;3.95;2.28;;;20.00;38.60;;;;;;5057020;28;20061;-52
2021/03/10 08:12:40;;;;;;;6.50;2.22;;;20.10;38.70;;;;;;5057599;28;20370;-52
2021/03/10 08:15:07;;;;;;;3.35;2.38;;;20.10;38.70;;;;;;5057277;28;20132;-50
2021/03/10 08:17:33;;;;;;;10.13;2.42;;;20.10;38.90;;;;;;5057747;28;20043;-53
2021/03/10 08:20:04;;;;;;;7.75;2.88;;;20.20;39.00;;;;;;5057086;28;20116;-48
2021/03/10 08:22:31;;;;;;;5.22;2.75;;;20.10;39.10;;;;;;5057123;28;20021;-48
2021/03/10 08:24:59;;;;;;;7.95;3.08;;;20.10;39.30;;;;;;5057232;28;20436;-51
2021/03/10 08:27:35;;;;;;;7.78;2.60;;;20.20;39.40;;;;;;5056743;28;20337;-50
2021/03/10 08:30:03;;;;;;;5.82;2.58;;;20.20;39.60;;;;;;5056865;28;20070;-52
2021/03/10 08:32:30;;;;;;;10.57;3.28;;;20.20;39.80;;;;;;5056839;28;20041;-55
2021/03/10 08:35:19;;;;;;;6.57;2.95;;;20.20;40.20;;;;;;5056937;28;20122;-51
2021/03/10 08:37:55;;;;;;;9.95;3.40;;;20.30;40.20;;;;;;5056765;28;20029;-48
2021/03/10 08:40:25;;;;;;;8.82;3.55;;;20.30;40.40;;;;;;5056822;28;20375;-50
2021/03/10 08:42:50;;;;;;;6.15;2.97;;;20.30;40.40;;;;;;5057099;28;20044;-47
2021/03/10 08:45:27;;;;;;;5.97;3.33;;;20.30;40.50;;;;;;5056330;28;20041;-52
2021/03/10 08:48:07;;;;;;;6.60;3.45;;;20.30;40.60;;;;;;5056684;28;20108;-46
2021/03/10 08:50:36;;;;;;;4.55;2.90;;;20.30;40.70;;;;;;5056606;28;20040;-52
2021/03/10 08:53:03;;;;;;;9.18;3.25;;;20.30;40.70;;;;;;5055768;28;20029;-49
2021/03/10 08:55:28;;;;;;;6.30;3.15;;;20.30;40.70;;;;;;5056027;28;20037;-50
2021/03/10 08:57:55;;;;;;;11.18;4.10;;;20.30;40.70;;;;;;5056416;28;20037;-52
2021/03/10 09:00:25;;;;;;;5.00;3.85;;;20.30;41.10;;;;;;5056620;28;20120;-49
2021/03/10 09:02:52;;;;;;;5.88;3.50;;;20.40;41.10;;;;;;5056174;28;20033;-52
2021/03/10 09:05:24;;;;;;;6.47;3.63;;;20.40;41.10;;;;;;5056266;28;20103;-53
2021/03/10 09:07:51;;;;;;;7.40;3.53;;;20.40;41.10;;;;;;5056248;28;20079;-50
2021/03/10 09:10:18;;;;;;;5.65;3.78;;;20.40;41.10;;;;;;5056209;28;20056;-48
2021/03/10 09:12:46;;;;;;;7.40;3.72;;;20.40;41.20;;;;;;5055889;28;20431;-51
2021/03/10 09:15:14;;;;;;;6.47;3.97;;;20.50;41.30;;;;;;5056076;28;20025;-56
2021/03/10 09:17:39;;;;;;;8.90;5.72;;;20.40;41.30;;;;;;5055708;28;20466;-47
2021/03/10 09:20:19;;;;;;;6.47;5.07;;;20.40;41.30;;;;;;5055708;28;20059;-52
2021/03/10 09:22:46;;;;;;;6.10;4.00;;;20.50;41.60;;;;;;5056389;28;20091;-48
2021/03/10 09:25:16;;;;;;;6.53;4.50;;;20.40;41.50;;;;;;5055881;28;20033;-56
2021/03/10 09:27:42;;;;;;;5.55;4.20;;;20.50;41.50;;;;;;5055603;28;20505;-53
2021/03/10 09:30:11;;;;;;;7.35;5.15;;;20.40;41.50;;;;;;5055810;28;20045;-51
2021/03/10 09:32:47;;;;;;;9.07;4.82;;;20.50;41.60;;;;;;5055461;28;20056;-49
2021/03/10 09:35:39;;;;;;;4.70;3.90;;;20.50;41.70;;;;;;5055856;28;20040;-51
2021/03/10 09:38:07;;;;;;;5.45;3.85;;;20.50;41.70;;;;;;5055347;28;20064;-49
2021/03/10 09:40:59;;;;;;;10.00;3.90;;;20.50;41.90;;;;;;5055341;28;20447;-48
2021/03/10 09:43:26;;;;;;;5.63;3.67;;;20.50;41.90;;;;;;5055627;28;20120;-49
2021/03/10 09:46:09;;;;;;;7.68;5.18;;;20.50;42.00;;;;;;5055442;28;20041;-47
2021/03/10 09:48:40;;;;;;;6.47;4.55;;;20.50;42.20;;;;;;5055608;28;20041;-49
2021/03/10 09:51:10;;;;;;;7.55;5.63;;;20.50;42.10;;;;;;5054237;28;20091;-47
2021/03/10 09:53:48;;;;;;;10.75;4.90;;;20.50;42.20;;;;;;5053248;28;20075;-51
2021/03/10 09:56:19;;;;;;;7.05;4.22;;;20.50;42.20;;;;;;5055031;28;20032;-52
2021/03/10 09:58:54;;;;;;;6.97;3.90;;;20.50;42.20;;;;;;5054424;28;20040;-50
2021/03/10 10:01:20;;;;;;;7.65;4.43;;;20.50;42.10;;;;;;5054839;28;20048;-48
2021/03/10 10:03:46;;;;;;;5.38;3.63;;;20.60;42.10;;;;;;5054711;28;20052;-49
2021/03/10 10:06:14;;;;;;;5.57;3.38;;;20.60;42.10;;;;;;5054123;28;20463;-49
2021/03/10 10:08:40;;;;;;;8.18;3.80;;;20.60;42.10;;;;;;5055314;28;20161;-55
2021/03/10 10:11:06;;;;;;;6.50;3.70;;;20.60;42.10;;;;;;5055074;28;20063;-49
2021/03/10 10:13:32;;;;;;;8.60;4.20;;;20.60;42.00;;;;;;5055189;28;20454;-48
2021/03/10 10:15:57;;;;;;;7.03;4.85;;;20.60;42.00;;;;;;5053908;28;20052;-52
2021/03/10 10:18:23;;;;;;;11.07;5.13;;;20.60;42.00;;;;;;5055103;28;20040;-52
2021/03/10 10:20:50;;;;;;;8.35;5.00;;;20.60;41.90;;;;;;5054954;28;20029;-50
2021/03/10 10:23:15;;;;;;;6.88;3.97;;;20.60;41.90;;;;;;5054872;28;20040;-51
2021/03/10 10:25:41;;;;;;;6.97;4.43;;;20.60;41.80;;;;;;5054719;28;20037;-49
2021/03/10 10:28:07;;;;;;;9.68;3.97;;;20.60;41.80;;;;;;5054335;28;20051;-52
2021/03/10 10:30:32;;;;;;;11.18;5.22;;;20.60;41.70;;;;;;5055043;28;20041;-52
2021/03/10 10:32:58;;;;;;;8.15;4.70;;;20.70;41.70;;;;;;5054587;28;20040;-51
2021/03/10 10:35:23;;;;;;;8.32;4.30;;;20.70;41.70;;;;;;5054519;28;20035;-53
2021/03/10 10:37:49;;;;;;;12.10;4.60;;;20.70;41.70;;;;;;5054768;28;20075;-52
